sensor_id;sensor_type;location;lat;lon;timestamp;P1;durP1;ratioP1;P2;durP2;ratioP2
37495;SDS011;23346;52.088;4.746;2022-09-27T00:02:15;12.40;;;1.23;;
37495;SDS011;23346;52.088;4.746;2022-09-27T00:04:41;10.00;;;0.80;;
37495;SDS011;23346;52.088;4.746;2022-09-27T00:07:07;9.27;;;0.80;;
37495;SDS011;23346;52.088;4.746;2022-09-27T00:09:35;6.23;;;1.10;;
37495;SDS011;23346;52.088;4.746;2022-09-27T00:12:01;10.13;;;1.10;;
37495;SDS011;23346;52.088;4.746;2022-09-27T00:14:27;11.37;;;1.10;;
37495;SDS011;23346;52.088;4.746;2022-09-27T00:16:53;7.53;;;0.93;;
37495;SDS011;23346;52.088;4.746;2022-09-27T00:19:20;6.70;;;1.00;;
37495;SDS011;23346;52.088;4.746;2022-09-27T00:21:47;11.03;;;1.03;;
37495;SDS011;23346;52.088;4.746;2022-09-27T00:24:15;6.53;;;1.10;;
37495;SDS011;23346;52.088;4.746;2022-09-27T00:26:41;12.30;;;1.00;;
37495;SDS011;23346;52.088;4.746;2022-09-27T00:29:08;20.43;;;2.20;;
37495;SDS011;23346;52.088;4.746;2022-09-27T00:31:35;9.30;;;1.23;;
37495;SDS011;23346;52.088;4.746;2022-09-27T00:34:01;13.00;;;1.97;;
37495;SDS011;23346;52.088;4.746;2022-09-27T00:36:28;17.63;;;1.60;;
37495;SDS011;23346;52.088;4.746;2022-09-27T00:38:54;9.67;;;1.00;;
37495;SDS011;23346;52.088;4.746;2022-09-27T00:41:21;9.60;;;1.00;;
37495;SDS011;23346;52.088;4.746;2022-09-27T00:43:55;10.93;;;1.30;;
37495;SDS011;23346;52.088;4.746;2022-09-27T00:51:28;18.33;;;1.30;;
37495;SDS011;23346;52.088;4.746;2022-09-27T00:53:55;9.03;;;1.60;;
37495;SDS011;23346;52.088;4.746;2022-09-27T00:56:23;17.27;;;1.60;;
37495;SDS011;23346;52.088;4.746;2022-09-27T00:58:53;10.70;;;1.40;;
37495;SDS011;23346;52.088;4.746;2022-09-27T01:01:21;12.63;;;1.10;;
37495;SDS011;23346;52.088;4.746;2022-09-27T01:04:00;16.53;;;1.77;;
37495;SDS011;23346;52.088;4.746;2022-09-27T01:06:28;13.30;;;1.70;;
37495;SDS011;23346;52.088;4.746;2022-09-27T01:08:54;12.67;;;1.80;;
37495;SDS011;23346;52.088;4.746;2022-09-27T01:11:41;10.37;;;1.30;;
37495;SDS011;23346;52.088;4.746;2022-09-27T01:24:27;13.20;;;1.63;;
37495;SDS011;23346;52.088;4.746;2022-09-27T01:32:08;7.97;;;1.10;;
37495;SDS011;23346;52.088;4.746;2022-09-27T01:34:44;12.87;;;1.20;;
37495;SDS011;23346;52.088;4.746;2022-09-27T01:37:15;22.37;;;1.50;;
37495;SDS011;23346;52.088;4.746;2022-09-27T01:47:20;16.73;;;1.80;;
37495;SDS011;23346;52.088;4.746;2022-09-27T01:49:54;13.47;;;1.60;;
37495;SDS011;23346;52.088;4.746;2022-09-27T01:52:23;12.40;;;2.10;;
37495;SDS011;23346;52.088;4.746;2022-09-27T01:54:52;11.03;;;1.43;;
37495;SDS011;23346;52.088;4.746;2022-09-27T01:57:21;14.20;;;1.57;;
37495;SDS011;23346;52.088;4.746;2022-09-27T01:59:49;19.00;;;1.77;;
37495;SDS011;23346;52.088;4.746;2022-09-27T02:02:16;10.07;;;1.90;;
37495;SDS011;23346;52.088;4.746;2022-09-27T02:04:43;9.13;;;0.93;;
37495;SDS011;23346;52.088;4.746;2022-09-27T02:07:14;11.03;;;1.70;;
37495;SDS011;23346;52.088;4.746;2022-09-27T02:09:52;14.23;;;1.40;;
37495;SDS011;23346;52.088;4.746;2022-09-27T02:12:20;17.20;;;1.83;;
37495;SDS011;23346;52.088;4.746;2022-09-27T02:14:58;11.90;;;1.63;;
37495;SDS011;23346;52.088;4.746;2022-09-27T02:22:31;16.37;;;1.37;;
37495;SDS011;23346;52.088;4.746;2022-09-27T02:25:01;7.40;;;1.40;;
37495;SDS011;23346;52.088;4.746;2022-09-27T02:27:33;17.13;;;1.90;;
37495;SDS011;23346;52.088;4.746;2022-09-27T02:30:10;14.00;;;1.37;;
37495;SDS011;23346;52.088;4.746;2022-09-27T02:32:37;13.27;;;1.13;;
37495;SDS011;23346;52.088;4.746;2022-09-27T02:35:06;17.67;;;1.73;;
37495;SDS011;23346;52.088;4.746;2022-09-27T02:37:32;23.63;;;1.97;;
37495;SDS011;23346;52.088;4.746;2022-09-27T02:39:58;14.97;;;1.80;;
37495;SDS011;23346;52.088;4.746;2022-09-27T02:42:25;10.47;;;1.53;;
37495;SDS011;23346;52.088;4.746;2022-09-27T02:44:51;8.80;;;1.30;;
37495;SDS011;23346;52.088;4.746;2022-09-27T02:57:44;8.77;;;1.67;;
37495;SDS011;23346;52.088;4.746;2022-09-27T03:00:14;4.27;;;0.77;;
37495;SDS011;23346;52.088;4.746;2022-09-27T03:05:09;4.10;;;0.67;;
37495;SDS011;23346;52.088;4.746;2022-09-27T03:07:36;4.57;;;0.70;;
37495;SDS011;23346;52.088;4.746;2022-09-27T03:10:03;2.23;;;0.60;;
37495;SDS011;23346;52.088;4.746;2022-09-27T03:12:29;4.77;;;0.73;;
37495;SDS011;23346;52.088;4.746;2022-09-27T03:14:56;7.20;;;0.73;;
37495;SDS011;23346;52.088;4.746;2022-09-27T03:17:22;7.93;;;0.80;;
37495;SDS011;23346;52.088;4.746;2022-09-27T03:19:49;4.17;;;0.90;;
37495;SDS011;23346;52.088;4.746;2022-09-27T03:22:15;3.27;;;0.70;;
37495;SDS011;23346;52.088;4.746;2022-09-27T03:24:41;4.77;;;0.70;;
37495;SDS011;23346;52.088;4.746;2022-09-27T03:27:07;0.67;;;0.50;;
37495;SDS011;23346;52.088;4.746;2022-09-27T03:29:34;2.43;;;0.63;;
37495;SDS011;23346;52.088;4.746;2022-09-27T03:32:00;5.03;;;0.70;;
37495;SDS011;23346;52.088;4.746;2022-09-27T03:34:26;4.93;;;0.80;;
37495;SDS011;23346;52.088;4.746;2022-09-27T03:36:53;2.63;;;0.70;;
37495;SDS011;23346;52.088;4.746;2022-09-27T03:39:19;4.77;;;0.90;;
37495;SDS011;23346;52.088;4.746;2022-09-27T03:41:45;5.27;;;0.70;;
37495;SDS011;23346;52.088;4.746;2022-09-27T03:44:11;3.53;;;0.80;;
37495;SDS011;23346;52.088;4.746;2022-09-27T03:46:37;5.13;;;0.83;;
37495;SDS011;23346;52.088;4.746;2022-09-27T03:49:03;8.73;;;1.53;;
37495;SDS011;23346;52.088;4.746;2022-09-27T03:51:30;13.23;;;1.47;;
37495;SDS011;23346;52.088;4.746;2022-09-27T03:53:56;7.80;;;1.17;;
37495;SDS011;23346;52.088;4.746;2022-09-27T03:56:22;7.97;;;1.10;;
37495;SDS011;23346;52.088;4.746;2022-09-27T03:58:48;8.60;;;1.37;;
37495;SDS011;23346;52.088;4.746;2022-09-27T04:01:14;12.73;;;1.47;;
37495;SDS011;23346;52.088;4.746;2022-09-27T04:03:40;7.47;;;1.30;;
37495;SDS011;23346;52.088;4.746;2022-09-27T04:06:07;19.77;;;1.63;;
37495;SDS011;23346;52.088;4.746;2022-09-27T04:08:33;7.87;;;1.20;;
37495;SDS011;23346;52.088;4.746;2022-09-27T04:10:59;10.70;;;1.57;;
37495;SDS011;23346;52.088;4.746;2022-09-27T04:13:25;10.37;;;1.20;;
37495;SDS011;23346;52.088;4.746;2022-09-27T04:15:51;9.83;;;1.57;;
37495;SDS011;23346;52.088;4.746;2022-09-27T04:18:18;8.33;;;2.23;;
37495;SDS011;23346;52.088;4.746;2022-09-27T04:20:44;6.70;;;1.53;;
37495;SDS011;23346;52.088;4.746;2022-09-27T04:23:10;7.33;;;1.10;;
37495;SDS011;23346;52.088;4.746;2022-09-27T04:25:36;10.33;;;1.20;;
37495;SDS011;23346;52.088;4.746;2022-09-27T04:28:03;10.73;;;1.30;;
37495;SDS011;23346;52.088;4.746;2022-09-27T04:30:30;9.93;;;1.53;;
37495;SDS011;23346;52.088;4.746;2022-09-27T04:32:56;10.60;;;1.50;;
37495;SDS011;23346;52.088;4.746;2022-09-27T04:35:22;8.17;;;1.20;;
37495;SDS011;23346;52.088;4.746;2022-09-27T04:38:07;11.23;;;1.60;;
37495;SDS011;23346;52.088;4.746;2022-09-27T04:40:33;13.93;;;1.33;;
37495;SDS011;23346;52.088;4.746;2022-09-27T04:42:59;11.67;;;1.33;;
37495;SDS011;23346;52.088;4.746;2022-09-27T04:45:27;14.10;;;1.30;;
37495;SDS011;23346;52.088;4.746;2022-09-27T04:47:53;9.53;;;1.50;;
37495;SDS011;23346;52.088;4.746;2022-09-27T04:50:19;2.90;;;1.23;;
37495;SDS011;23346;52.088;4.746;2022-09-27T04:52:52;8.33;;;1.33;;
37495;SDS011;23346;52.088;4.746;2022-09-27T04:55:18;8.57;;;0.90;;
37495;SDS011;23346;52.088;4.746;2022-09-27T04:57:45;6.03;;;1.23;;
37495;SDS011;23346;52.088;4.746;2022-09-27T05:00:11;14.03;;;1.40;;
37495;SDS011;23346;52.088;4.746;2022-09-27T05:02:37;13.03;;;1.53;;
37495;SDS011;23346;52.088;4.746;2022-09-27T05:05:03;13.87;;;1.73;;
37495;SDS011;23346;52.088;4.746;2022-09-27T05:07:32;7.60;;;1.10;;
37495;SDS011;23346;52.088;4.746;2022-09-27T05:09:58;15.57;;;1.73;;
37495;SDS011;23346;52.088;4.746;2022-09-27T05:12:24;6.00;;;1.17;;
37495;SDS011;23346;52.088;4.746;2022-09-27T05:14:51;10.00;;;1.50;;
37495;SDS011;23346;52.088;4.746;2022-09-27T05:17:17;10.03;;;1.53;;
37495;SDS011;23346;52.088;4.746;2022-09-27T05:19:44;8.60;;;1.23;;
37495;SDS011;23346;52.088;4.746;2022-09-27T05:22:10;16.47;;;1.80;;
37495;SDS011;23346;52.088;4.746;2022-09-27T05:24:36;6.53;;;1.13;;
37495;SDS011;23346;52.088;4.746;2022-09-27T05:27:03;8.70;;;1.10;;
37495;SDS011;23346;52.088;4.746;2022-09-27T05:29:32;9.93;;;1.47;;
37495;SDS011;23346;52.088;4.746;2022-09-27T05:31:59;9.47;;;1.20;;
37495;SDS011;23346;52.088;4.746;2022-09-27T05:34:25;15.73;;;2.07;;
37495;SDS011;23346;52.088;4.746;2022-09-27T05:36:51;10.33;;;1.73;;
37495;SDS011;23346;52.088;4.746;2022-09-27T05:39:17;11.10;;;1.67;;
37495;SDS011;23346;52.088;4.746;2022-09-27T05:41:43;9.97;;;1.60;;
37495;SDS011;23346;52.088;4.746;2022-09-27T05:44:10;6.20;;;1.10;;
37495;SDS011;23346;52.088;4.746;2022-09-27T05:46:37;14.17;;;1.27;;
37495;SDS011;23346;52.088;4.746;2022-09-27T05:49:03;4.80;;;1.47;;
37495;SDS011;23346;52.088;4.746;2022-09-27T05:51:29;13.33;;;1.63;;
37495;SDS011;23346;52.088;4.746;2022-09-27T05:53:55;9.20;;;1.30;;
37495;SDS011;23346;52.088;4.746;2022-09-27T05:56:21;11.70;;;1.70;;
37495;SDS011;23346;52.088;4.746;2022-09-27T05:58:49;12.10;;;2.10;;
37495;SDS011;23346;52.088;4.746;2022-09-27T06:01:14;12.67;;;2.10;;
37495;SDS011;23346;52.088;4.746;2022-09-27T06:03:41;16.93;;;2.80;;
37495;SDS011;23346;52.088;4.746;2022-09-27T06:06:07;9.97;;;1.70;;
37495;SDS011;23346;52.088;4.746;2022-09-27T06:08:35;6.80;;;1.40;;
37495;SDS011;23346;52.088;4.746;2022-09-27T06:11:03;11.10;;;1.33;;
37495;SDS011;23346;52.088;4.746;2022-09-27T06:13:29;15.03;;;1.90;;
37495;SDS011;23346;52.088;4.746;2022-09-27T06:15:57;7.53;;;1.57;;
37495;SDS011;23346;52.088;4.746;2022-09-27T06:18:23;7.53;;;1.47;;
37495;SDS011;23346;52.088;4.746;2022-09-27T06:20:49;9.40;;;1.43;;
37495;SDS011;23346;52.088;4.746;2022-09-27T06:23:16;11.13;;;1.40;;
37495;SDS011;23346;52.088;4.746;2022-09-27T06:25:42;8.73;;;1.20;;
37495;SDS011;23346;52.088;4.746;2022-09-27T06:28:09;9.50;;;1.07;;
37495;SDS011;23346;52.088;4.746;2022-09-27T06:30:53;19.80;;;1.60;;
37495;SDS011;23346;52.088;4.746;2022-09-27T06:33:20;11.20;;;1.40;;
37495;SDS011;23346;52.088;4.746;2022-09-27T06:35:46;14.17;;;1.50;;
37495;SDS011;23346;52.088;4.746;2022-09-27T06:38:13;10.63;;;1.30;;
37495;SDS011;23346;52.088;4.746;2022-09-27T06:40:43;12.30;;;1.30;;
37495;SDS011;23346;52.088;4.746;2022-09-27T06:43:10;12.93;;;1.77;;
37495;SDS011;23346;52.088;4.746;2022-09-27T06:45:36;13.77;;;1.60;;
37495;SDS011;23346;52.088;4.746;2022-09-27T06:48:03;9.90;;;1.57;;
37495;SDS011;23346;52.088;4.746;2022-09-27T06:50:29;11.83;;;1.60;;
37495;SDS011;23346;52.088;4.746;2022-09-27T06:52:57;4.57;;;1.67;;
37495;SDS011;23346;52.088;4.746;2022-09-27T06:55:23;9.40;;;1.30;;
37495;SDS011;23346;52.088;4.746;2022-09-27T06:57:52;9.90;;;1.30;;
37495;SDS011;23346;52.088;4.746;2022-09-27T07:00:37;9.43;;;1.70;;
37495;SDS011;23346;52.088;4.746;2022-09-27T07:03:03;12.83;;;1.67;;
37495;SDS011;23346;52.088;4.746;2022-09-27T07:05:30;6.60;;;1.57;;
37495;SDS011;23346;52.088;4.746;2022-09-27T07:07:56;10.53;;;1.40;;
37495;SDS011;23346;52.088;4.746;2022-09-27T07:10:27;7.93;;;1.07;;
37495;SDS011;23346;52.088;4.746;2022-09-27T07:12:53;18.87;;;1.50;;
37495;SDS011;23346;52.088;4.746;2022-09-27T07:15:20;8.80;;;1.30;;
37495;SDS011;23346;52.088;4.746;2022-09-27T07:17:48;14.03;;;1.67;;
37495;SDS011;23346;52.088;4.746;2022-09-27T07:20:20;12.10;;;1.40;;
37495;SDS011;23346;52.088;4.746;2022-09-27T07:22:46;15.47;;;1.57;;
37495;SDS011;23346;52.088;4.746;2022-09-27T07:25:13;12.90;;;1.93;;
37495;SDS011;23346;52.088;4.746;2022-09-27T07:27:39;20.77;;;1.70;;
37495;SDS011;23346;52.088;4.746;2022-09-27T07:30:08;12.47;;;1.17;;
37495;SDS011;23346;52.088;4.746;2022-09-27T07:32:34;14.23;;;1.50;;
37495;SDS011;23346;52.088;4.746;2022-09-27T07:35:04;22.20;;;1.30;;
37495;SDS011;23346;52.088;4.746;2022-09-27T07:37:34;11.60;;;1.20;;
37495;SDS011;23346;52.088;4.746;2022-09-27T07:40:00;9.73;;;1.03;;
37495;SDS011;23346;52.088;4.746;2022-09-27T07:42:27;8.07;;;1.00;;
37495;SDS011;23346;52.088;4.746;2022-09-27T07:44:56;9.30;;;0.90;;
37495;SDS011;23346;52.088;4.746;2022-09-27T07:47:22;8.10;;;0.80;;
37495;SDS011;23346;52.088;4.746;2022-09-27T07:49:49;9.73;;;0.90;;
37495;SDS011;23346;52.088;4.746;2022-09-27T07:52:16;12.00;;;0.80;;
37495;SDS011;23346;52.088;4.746;2022-09-27T07:54:43;17.93;;;1.27;;
37495;SDS011;23346;52.088;4.746;2022-09-27T07:57:09;20.40;;;1.20;;
37495;SDS011;23346;52.088;4.746;2022-09-27T07:59:35;9.57;;;0.90;;
37495;SDS011;23346;52.088;4.746;2022-09-27T08:02:01;5.20;;;0.90;;
37495;SDS011;23346;52.088;4.746;2022-09-27T08:04:27;7.00;;;0.90;;
37495;SDS011;23346;52.088;4.746;2022-09-27T08:06:53;6.23;;;0.73;;
37495;SDS011;23346;52.088;4.746;2022-09-27T08:09:20;7.03;;;0.90;;
37495;SDS011;23346;52.088;4.746;2022-09-27T08:11:46;5.43;;;0.60;;
37495;SDS011;23346;52.088;4.746;2022-09-27T08:14:12;3.90;;;0.60;;
37495;SDS011;23346;52.088;4.746;2022-09-27T08:16:38;6.00;;;0.80;;
37495;SDS011;23346;52.088;4.746;2022-09-27T08:19:05;6.70;;;0.87;;
37495;SDS011;23346;52.088;4.746;2022-09-27T08:21:31;6.67;;;1.00;;
37495;SDS011;23346;52.088;4.746;2022-09-27T08:23:57;11.30;;;0.87;;
37495;SDS011;23346;52.088;4.746;2022-09-27T08:26:26;5.27;;;0.70;;
37495;SDS011;23346;52.088;4.746;2022-09-27T08:28:52;7.97;;;0.60;;
37495;SDS011;23346;52.088;4.746;2022-09-27T08:31:18;5.77;;;0.57;;
37495;SDS011;23346;52.088;4.746;2022-09-27T08:33:48;4.73;;;1.03;;
37495;SDS011;23346;52.088;4.746;2022-09-27T08:36:15;9.60;;;0.90;;
37495;SDS011;23346;52.088;4.746;2022-09-27T08:38:41;6.13;;;0.60;;
37495;SDS011;23346;52.088;4.746;2022-09-27T08:41:08;7.57;;;0.80;;
37495;SDS011;23346;52.088;4.746;2022-09-27T08:43:43;3.20;;;0.60;;
37495;SDS011;23346;52.088;4.746;2022-09-27T08:46:23;6.10;;;0.70;;
37495;SDS011;23346;52.088;4.746;2022-09-27T08:48:53;6.50;;;0.87;;
37495;SDS011;23346;52.088;4.746;2022-09-27T08:51:25;7.00;;;0.80;;
37495;SDS011;23346;52.088;4.746;2022-09-27T08:54:00;9.00;;;0.73;;
37495;SDS011;23346;52.088;4.746;2022-09-27T08:56:27;4.50;;;0.80;;
37495;SDS011;23346;52.088;4.746;2022-09-27T08:58:57;8.53;;;1.00;;
37495;SDS011;23346;52.088;4.746;2022-09-27T09:01:25;6.00;;;1.20;;
37495;SDS011;23346;52.088;4.746;2022-09-27T09:03:53;7.87;;;1.70;;
37495;SDS011;23346;52.088;4.746;2022-09-27T09:06:21;15.33;;;4.63;;
37495;SDS011;23346;52.088;4.746;2022-09-27T09:14:27;8.47;;;1.63;;
37495;SDS011;23346;52.088;4.746;2022-09-27T09:17:02;4.70;;;2.90;;
37495;SDS011;23346;52.088;4.746;2022-09-27T09:22:10;8.17;;;2.10;;
37495;SDS011;23346;52.088;4.746;2022-09-27T09:27:14;3.73;;;1.27;;
37495;SDS011;23346;52.088;4.746;2022-09-27T09:34:58;7.03;;;1.00;;
37495;SDS011;23346;52.088;4.746;2022-09-27T09:37:34;9.50;;;1.73;;
37495;SDS011;23346;52.088;4.746;2022-09-27T09:40:03;11.13;;;1.47;;
37495;SDS011;23346;52.088;4.746;2022-09-27T09:42:32;14.13;;;1.30;;
37495;SDS011;23346;52.088;4.746;2022-09-27T09:45:13;12.77;;;1.27;;
37495;SDS011;23346;52.088;4.746;2022-09-27T09:50:27;9.87;;;1.97;;
37495;SDS011;23346;52.088;4.746;2022-09-27T09:52:55;15.30;;;2.53;;
37495;SDS011;23346;52.088;4.746;2022-09-27T09:55:24;14.27;;;1.70;;
37495;SDS011;23346;52.088;4.746;2022-09-27T09:58:01;8.27;;;1.47;;
37495;SDS011;23346;52.088;4.746;2022-09-27T10:00:28;20.03;;;1.50;;
37495;SDS011;23346;52.088;4.746;2022-09-27T10:02:54;12.70;;;1.47;;
37495;SDS011;23346;52.088;4.746;2022-09-27T10:05:23;17.60;;;1.20;;
37495;SDS011;23346;52.088;4.746;2022-09-27T10:07:50;12.47;;;1.10;;
37495;SDS011;23346;52.088;4.746;2022-09-27T10:10:16;11.67;;;1.10;;
37495;SDS011;23346;52.088;4.746;2022-09-27T10:12:43;25.40;;;1.73;;
37495;SDS011;23346;52.088;4.746;2022-09-27T10:15:17;29.20;;;1.37;;
37495;SDS011;23346;52.088;4.746;2022-09-27T10:17:44;18.37;;;1.87;;
37495;SDS011;23346;52.088;4.746;2022-09-27T10:20:25;0.33;;;0.33;;
37495;SDS011;23346;52.088;4.746;2022-09-27T10:22:57;0.10;;;0.10;;
37495;SDS011;23346;52.088;4.746;2022-09-27T10:25:24;0.10;;;0.10;;
37495;SDS011;23346;52.088;4.746;2022-09-27T10:27:52;0.10;;;0.10;;
37495;SDS011;23346;52.088;4.746;2022-09-27T10:30:40;0.23;;;0.23;;
37495;SDS011;23346;52.088;4.746;2022-09-27T10:33:15;0.10;;;0.10;;
37495;SDS011;23346;52.088;4.746;2022-09-27T10:35:44;0.57;;;0.57;;
37495;SDS011;23346;52.088;4.746;2022-09-27T10:38:16;0.10;;;0.10;;
37495;SDS011;23346;52.088;4.746;2022-09-27T10:40:45;0.30;;;0.30;;
37495;SDS011;23346;52.088;4.746;2022-09-27T10:43:23;0.20;;;0.20;;
37495;SDS011;23346;52.088;4.746;2022-09-27T10:45:49;0.73;;;0.73;;
37495;SDS011;23346;52.088;4.746;2022-09-27T10:48:19;0.10;;;0.10;;
37495;SDS011;23346;52.088;4.746;2022-09-27T10:50:58;0.77;;;0.77;;
37495;SDS011;23346;52.088;4.746;2022-09-27T10:53:25;0.30;;;0.30;;
37495;SDS011;23346;52.088;4.746;2022-09-27T10:55:51;0.10;;;0.10;;
37495;SDS011;23346;52.088;4.746;2022-09-27T10:58:24;0.30;;;0.30;;
37495;SDS011;23346;52.088;4.746;2022-09-27T11:00:55;0.20;;;0.20;;
37495;SDS011;23346;52.088;4.746;2022-09-27T11:03:21;0.20;;;0.20;;
37495;SDS011;23346;52.088;4.746;2022-09-27T11:05:49;0.10;;;0.10;;
37495;SDS011;23346;52.088;4.746;2022-09-27T11:13:30;0.30;;;0.30;;
37495;SDS011;23346;52.088;4.746;2022-09-27T11:18:49;3.97;;;1.70;;
37495;SDS011;23346;52.088;4.746;2022-09-27T11:26:39;0.10;;;0.10;;
37495;SDS011;23346;52.088;4.746;2022-09-27T11:36:50;0.20;;;0.20;;
37495;SDS011;23346;52.088;4.746;2022-09-27T11:39:22;0.10;;;0.10;;
37495;SDS011;23346;52.088;4.746;2022-09-27T11:49:49;7.43;;;0.30;;
37495;SDS011;23346;52.088;4.746;2022-09-27T11:55:09;1.33;;;1.20;;
37495;SDS011;23346;52.088;4.746;2022-09-27T11:57:41;0.73;;;0.73;;
37495;SDS011;23346;52.088;4.746;2022-09-27T12:00:13;0.13;;;0.13;;
37495;SDS011;23346;52.088;4.746;2022-09-27T12:10:30;0.10;;;0.10;;
37495;SDS011;23346;52.088;4.746;2022-09-27T12:12:56;0.60;;;0.60;;
37495;SDS011;23346;52.088;4.746;2022-09-27T12:15:24;0.00;;;0.00;;
37495;SDS011;23346;52.088;4.746;2022-09-27T12:17:55;0.10;;;0.10;;
37495;SDS011;23346;52.088;4.746;2022-09-27T12:20:22;0.13;;;0.13;;
37495;SDS011;23346;52.088;4.746;2022-09-27T12:25:35;0.17;;;0.10;;
37495;SDS011;23346;52.088;4.746;2022-09-27T12:28:08;0.00;;;0.00;;
37495;SDS011;23346;52.088;4.746;2022-09-27T12:30:37;0.00;;;0.00;;
37495;SDS011;23346;52.088;4.746;2022-09-27T12:33:06;0.20;;;0.20;;
37495;SDS011;23346;52.088;4.746;2022-09-27T12:35:43;0.10;;;0.10;;
37495;SDS011;23346;52.088;4.746;2022-09-27T12:38:21;0.00;;;0.00;;
37495;SDS011;23346;52.088;4.746;2022-09-27T12:40:50;0.10;;;0.10;;
37495;SDS011;23346;52.088;4.746;2022-09-27T12:43:18;0.23;;;0.10;;
37495;SDS011;23346;52.088;4.746;2022-09-27T12:48:15;0.33;;;0.33;;
37495;SDS011;23346;52.088;4.746;2022-09-27T12:50:43;0.33;;;0.33;;
37495;SDS011;23346;52.088;4.746;2022-09-27T12:53:13;0.20;;;0.20;;
37495;SDS011;23346;52.088;4.746;2022-09-27T12:55:46;0.30;;;0.30;;
37495;SDS011;23346;52.088;4.746;2022-09-27T12:58:30;0.20;;;0.20;;
37495;SDS011;23346;52.088;4.746;2022-09-27T13:06:18;1.50;;;0.20;;
37495;SDS011;23346;52.088;4.746;2022-09-27T13:14:23;0.10;;;0.10;;
37495;SDS011;23346;52.088;4.746;2022-09-27T13:16:50;0.17;;;0.17;;
37495;SDS011;23346;52.088;4.746;2022-09-27T13:21:53;0.10;;;0.10;;
37495;SDS011;23346;52.088;4.746;2022-09-27T13:24:28;0.20;;;0.20;;
37495;SDS011;23346;52.088;4.746;2022-09-27T13:26:54;0.30;;;0.30;;
37495;SDS011;23346;52.088;4.746;2022-09-27T13:29:26;0.23;;;0.23;;
37495;SDS011;23346;52.088;4.746;2022-09-27T13:39:49;0.47;;;0.47;;
37495;SDS011;23346;52.088;4.746;2022-09-27T13:42:27;24.23;;;0.50;;
37495;SDS011;23346;52.088;4.746;2022-09-27T13:45:00;0.20;;;0.20;;
37495;SDS011;23346;52.088;4.746;2022-09-27T13:47:31;0.57;;;0.17;;
37495;SDS011;23346;52.088;4.746;2022-09-27T13:50:03;0.23;;;0.23;;
37495;SDS011;23346;52.088;4.746;2022-09-27T13:52:32;0.17;;;0.17;;
37495;SDS011;23346;52.088;4.746;2022-09-27T13:55:36;0.10;;;0.10;;
37495;SDS011;23346;52.088;4.746;2022-09-27T13:57:58;0.27;;;0.27;;
37495;SDS011;23346;52.088;4.746;2022-09-27T14:00:36;0.10;;;0.10;;
37495;SDS011;23346;52.088;4.746;2022-09-27T14:05:53;0.20;;;0.20;;
37495;SDS011;23346;52.088;4.746;2022-09-27T14:10:46;0.20;;;0.17;;
37495;SDS011;23346;52.088;4.746;2022-09-27T14:13:12;0.33;;;0.33;;
37495;SDS011;23346;52.088;4.746;2022-09-27T14:15:40;0.10;;;0.10;;
37495;SDS011;23346;52.088;4.746;2022-09-27T14:18:09;0.43;;;0.27;;
37495;SDS011;23346;52.088;4.746;2022-09-27T14:23:05;0.40;;;0.40;;
37495;SDS011;23346;52.088;4.746;2022-09-27T14:25:31;0.30;;;0.30;;
37495;SDS011;23346;52.088;4.746;2022-09-27T14:27:57;0.20;;;0.20;;
37495;SDS011;23346;52.088;4.746;2022-09-27T14:30:25;0.10;;;0.10;;
37495;SDS011;23346;52.088;4.746;2022-09-27T14:32:52;0.10;;;0.10;;
37495;SDS011;23346;52.088;4.746;2022-09-27T14:35:28;0.20;;;0.20;;
37495;SDS011;23346;52.088;4.746;2022-09-27T14:38:14;0.10;;;0.10;;
37495;SDS011;23346;52.088;4.746;2022-09-27T14:40:42;0.10;;;0.10;;
37495;SDS011;23346;52.088;4.746;2022-09-27T14:43:10;0.10;;;0.10;;
37495;SDS011;23346;52.088;4.746;2022-09-27T14:45:38;0.20;;;0.20;;
37495;SDS011;23346;52.088;4.746;2022-09-27T14:48:17;0.47;;;0.47;;
37495;SDS011;23346;52.088;4.746;2022-09-27T14:50:52;0.20;;;0.20;;
37495;SDS011;23346;52.088;4.746;2022-09-27T14:53:22;0.10;;;0.10;;
37495;SDS011;23346;52.088;4.746;2022-09-27T14:55:48;0.20;;;0.20;;
37495;SDS011;23346;52.088;4.746;2022-09-27T14:58:14;0.10;;;0.10;;
37495;SDS011;23346;52.088;4.746;2022-09-27T15:00:44;1.20;;;0.67;;
37495;SDS011;23346;52.088;4.746;2022-09-27T15:03:11;0.20;;;0.20;;
37495;SDS011;23346;52.088;4.746;2022-09-27T15:05:39;0.17;;;0.17;;
37495;SDS011;23346;52.088;4.746;2022-09-27T15:08:08;0.47;;;0.47;;
37495;SDS011;23346;52.088;4.746;2022-09-27T15:10:35;0.37;;;0.37;;
37495;SDS011;23346;52.088;4.746;2022-09-27T15:13:02;0.23;;;0.23;;
37495;SDS011;23346;52.088;4.746;2022-09-27T15:15:35;0.83;;;0.83;;
37495;SDS011;23346;52.088;4.746;2022-09-27T15:18:28;0.10;;;0.10;;
37495;SDS011;23346;52.088;4.746;2022-09-27T15:20:52;11.63;;;0.60;;
37495;SDS011;23346;52.088;4.746;2022-09-27T15:23:29;0.20;;;0.20;;
37495;SDS011;23346;52.088;4.746;2022-09-27T15:25:57;0.40;;;0.40;;
37495;SDS011;23346;52.088;4.746;2022-09-27T15:28:23;0.50;;;0.50;;
37495;SDS011;23346;52.088;4.746;2022-09-27T15:30:55;3.57;;;1.97;;
37495;SDS011;23346;52.088;4.746;2022-09-27T15:33:22;0.20;;;0.20;;
37495;SDS011;23346;52.088;4.746;2022-09-27T15:35:49;0.87;;;0.53;;
37495;SDS011;23346;52.088;4.746;2022-09-27T15:43:21;0.40;;;0.40;;
37495;SDS011;23346;52.088;4.746;2022-09-27T15:45:50;0.63;;;0.47;;
37495;SDS011;23346;52.088;4.746;2022-09-27T15:48:17;0.73;;;0.70;;
37495;SDS011;23346;52.088;4.746;2022-09-27T15:50:44;0.40;;;0.40;;
37495;SDS011;23346;52.088;4.746;2022-09-27T15:53:12;0.13;;;0.13;;
37495;SDS011;23346;52.088;4.746;2022-09-27T15:55:56;0.33;;;0.33;;
37495;SDS011;23346;52.088;4.746;2022-09-27T15:58:23;0.20;;;0.20;;
37495;SDS011;23346;52.088;4.746;2022-09-27T16:00:53;0.20;;;0.20;;
37495;SDS011;23346;52.088;4.746;2022-09-27T16:03:20;0.40;;;0.30;;
37495;SDS011;23346;52.088;4.746;2022-09-27T16:05:46;0.20;;;0.20;;
37495;SDS011;23346;52.088;4.746;2022-09-27T16:08:12;0.20;;;0.20;;
37495;SDS011;23346;52.088;4.746;2022-09-27T16:10:39;0.20;;;0.20;;
37495;SDS011;23346;52.088;4.746;2022-09-27T16:13:06;5.00;;;1.83;;
37495;SDS011;23346;52.088;4.746;2022-09-27T16:15:32;2.43;;;1.97;;
37495;SDS011;23346;52.088;4.746;2022-09-27T16:17:58;3.33;;;2.30;;
37495;SDS011;23346;52.088;4.746;2022-09-27T16:20:25;1.00;;;1.00;;
37495;SDS011;23346;52.088;4.746;2022-09-27T16:22:54;10.93;;;1.57;;
37495;SDS011;23346;52.088;4.746;2022-09-27T16:25:21;1.03;;;1.03;;
37495;SDS011;23346;52.088;4.746;2022-09-27T16:27:47;0.40;;;0.40;;
37495;SDS011;23346;52.088;4.746;2022-09-27T16:30:13;0.20;;;0.20;;
37495;SDS011;23346;52.088;4.746;2022-09-27T16:32:40;0.20;;;0.20;;
37495;SDS011;23346;52.088;4.746;2022-09-27T16:35:06;0.47;;;0.47;;
37495;SDS011;23346;52.088;4.746;2022-09-27T16:37:33;1.77;;;0.70;;
37495;SDS011;23346;52.088;4.746;2022-09-27T16:39:59;2.00;;;0.90;;
37495;SDS011;23346;52.088;4.746;2022-09-27T16:42:25;5.50;;;1.23;;
37495;SDS011;23346;52.088;4.746;2022-09-27T16:44:51;4.03;;;1.90;;
37495;SDS011;23346;52.088;4.746;2022-09-27T16:47:18;0.80;;;0.80;;
37495;SDS011;23346;52.088;4.746;2022-09-27T16:49:44;0.37;;;0.37;;
37495;SDS011;23346;52.088;4.746;2022-09-27T16:52:29;0.50;;;0.50;;
37495;SDS011;23346;52.088;4.746;2022-09-27T16:54:56;4.37;;;1.07;;
37495;SDS011;23346;52.088;4.746;2022-09-27T16:57:23;0.80;;;0.80;;
37495;SDS011;23346;52.088;4.746;2022-09-27T16:59:49;0.60;;;0.60;;
37495;SDS011;23346;52.088;4.746;2022-09-27T17:02:15;0.47;;;0.47;;
37495;SDS011;23346;52.088;4.746;2022-09-27T17:04:42;0.20;;;0.20;;
37495;SDS011;23346;52.088;4.746;2022-09-27T17:07:08;0.97;;;0.97;;
37495;SDS011;23346;52.088;4.746;2022-09-27T17:09:34;1.93;;;1.47;;
37495;SDS011;23346;52.088;4.746;2022-09-27T17:12:00;2.33;;;2.13;;
37495;SDS011;23346;52.088;4.746;2022-09-27T17:14:26;5.20;;;1.13;;
37495;SDS011;23346;52.088;4.746;2022-09-27T17:16:52;1.50;;;1.40;;